Time;durP1;ratioP1;P1;durP2;ratioP2;P2;SDS_P1;SDS_P2;PMS_P1;PMS_P2;Temp;Humidity;BMP_temperature;BMP_pressure;BME280_temperature;BME280_humidity;BME280_pressure;Samples;Min_cycle;Max_cycle;Signal;HPM_P1;HPM_P2
2022/06/16 00:17:18;;;;;;;5.38;2.00;;;14.10;99.90;;;;;;6217691;22;20029;-92
2022/06/16 00:20:24;;;;;;;4.43;2.30;;;14.20;99.90;;;;;;6219633;23;20020;-93
2022/06/16 00:23:24;;;;;;;4.82;1.95;;;14.10;99.90;;;;;;6219605;23;20019;-92
2022/06/16 00:29:14;;;;;;;4.30;1.85;;;14.10;99.90;;;;;;6247018;23;20018;-91
2022/06/16 00:31:39;;;;;;;3.80;1.83;;;14.00;99.90;;;;;;6219746;23;20099;-92
2022/06/16 00:34:05;;;;;;;4.67;1.80;;;13.90;99.90;;;;;;6219540;23;20274;-92
2022/06/16 00:36:32;;;;;;;4.67;1.83;;;13.90;99.90;;;;;;6219613;23;20016;-92
2022/06/16 00:38:57;;;;;;;;;;;13.90;99.90;;;;;;6220008;23;20461;-93
2022/06/16 00:54:27;;;;;;;4.25;1.80;;;13.90;99.90;;;;;;6261655;22;20023;-93
2022/06/16 00:56:57;;;;;;;4.28;1.90;;;13.80;99.90;;;;;;6221484;23;20026;-92
2022/06/16 03:03:36;;;;;;;3.28;1.58;;;13.20;99.90;;;;;;6307644;22;20023;-93
2022/06/16 03:25:21;;;;;;;3.50;1.90;;;13.00;99.90;;;;;;6216273;22;20548;-92
2022/06/16 03:36:38;;;;;;;3.90;1.63;;;13.00;99.90;;;;;;6252393;22;20031;-91
2022/06/16 03:39:05;;;;;;;4.43;1.83;;;13.00;99.90;;;;;;6224565;22;20016;-92
2022/06/16 04:06:09;;;;;;;4.47;1.83;;;13.10;99.90;;;;;;6231613;22;20020;-93
2022/06/16 04:08:36;;;;;;;3.85;1.80;;;13.10;99.90;;;;;;6195653;23;20056;-92
2022/06/16 04:11:26;;;;;;;4.10;1.85;;;13.10;99.90;;;;;;6195369;23;20461;-95
2022/06/16 04:21:46;;;;;;;4.65;2.10;;;13.20;99.90;;;;;;6243207;22;20027;-93
2022/06/16 04:24:13;;;;;;;5.22;2.03;;;13.30;99.90;;;;;;6171266;23;20016;-94
2022/06/16 04:26:39;;;;;;;4.50;2.05;;;13.20;99.90;;;;;;6166049;23;20066;-94
2022/06/16 04:29:07;;;;;;;3.88;1.85;;;13.30;99.90;;;;;;6167288;23;20025;-95
2022/06/16 04:31:35;;;;;;;5.03;1.98;;;13.30;99.90;;;;;;6167418;23;20115;-96
2022/06/16 05:18:03;;;;;;;5.25;2.00;;;14.30;99.90;;;;;;6247574;22;20350;-91
2022/06/16 05:52:40;;;;;;;3.42;1.48;;;15.80;99.90;;;;;;6220893;23;20078;-92
2022/06/16 05:55:07;;;;;;;2.88;1.35;;;15.80;99.90;;;;;;6194182;23;20024;-92
2022/06/16 05:57:32;;;;;;;2.95;1.27;;;15.90;99.90;;;;;;6196193;23;20448;-93
2022/06/16 05:59:58;;;;;;;2.60;1.27;;;15.90;99.90;;;;;;6219439;23;20043;-93
2022/06/16 06:06:25;;;;;;;2.40;1.02;;;16.10;99.90;;;;;;6246711;23;20388;-93
2022/06/16 06:17:22;;;;;;;2.45;1.20;;;16.60;99.90;;;;;;6222729;23;20020;-96
2022/06/16 06:19:48;;;;;;;3.80;1.17;;;16.80;99.90;;;;;;6196885;23;20102;-96
2022/06/16 06:22:19;;;;;;;2.75;1.50;;;16.90;99.90;;;;;;6196018;23;20051;-95
2022/06/16 06:24:54;;;;;;;3.28;1.08;;;17.40;99.90;;;;;;6225614;23;20019;-95
2022/06/16 06:27:38;;;;;;;3.50;1.08;;;18.20;99.90;;;;;;6226960;23;20016;-96
2022/06/16 06:30:29;;;;;;;3.63;1.30;;;18.50;99.90;;;;;;6199132;23;20103;-95
2022/06/16 06:32:57;;;;;;;2.10;1.00;;;18.40;99.90;;;;;;6221165;23;20048;-96
2022/06/16 06:35:23;;;;;;;2.83;1.10;;;18.30;99.90;;;;;;6220999;23;20111;-93
2022/06/16 06:37:50;;;;;;;2.38;0.98;;;18.30;99.90;;;;;;6198645;23;20016;-95
2022/06/16 06:40:19;;;;;;;2.75;0.85;;;18.20;99.90;;;;;;6215089;23;20031;-93
2022/06/16 06:42:45;;;;;;;2.53;1.05;;;18.10;99.90;;;;;;6231381;23;20074;-94
2022/06/16 06:45:11;;;;;;;2.10;0.98;;;18.10;99.90;;;;;;6196066;23;20015;-96
2022/06/16 06:47:37;;;;;;;2.15;1.00;;;18.10;99.90;;;;;;6196009;23;20051;-96
2022/06/16 06:50:03;;;;;;;3.40;0.90;;;18.10;99.90;;;;;;6195383;22;20056;-96
2022/06/16 06:52:28;;;;;;;3.30;1.35;;;18.10;99.90;;;;;;6221860;23;20027;-93
2022/06/16 07:28:30;;;;;;;2.70;1.00;;;19.90;99.90;;;;;;6216155;22;20051;-93
2022/06/16 07:31:04;;;;;;;2.35;0.90;;;20.20;99.90;;;;;;6165072;23;20020;-93
2022/06/16 07:34:15;;;;;;;1.90;0.70;;;20.30;99.90;;;;;;6163841;23;20525;-95
2022/06/16 07:36:41;;;;;;;2.70;0.68;;;20.30;99.90;;;;;;6164607;23;20016;-95
2022/06/16 07:39:14;;;;;;;2.17;0.63;;;20.30;99.90;;;;;;6165303;23;20013;-93
2022/06/16 08:36:00;;;;;;;3.13;0.70;;;18.90;99.90;;;;;;6281504;22;20512;-95
2022/06/16 08:38:26;;;;;;;2.45;0.63;;;18.90;99.90;;;;;;6251882;22;20030;-92
2022/06/16 08:41:11;;;;;;;1.92;0.80;;;18.80;99.90;;;;;;6253127;22;20016;-95
2022/06/16 08:44:00;;;;;;;2.33;0.82;;;18.90;99.90;;;;;;6252111;22;20065;-95
2022/06/16 08:46:52;;;;;;;1.70;0.70;;;18.80;99.90;;;;;;6262075;22;20022;-94
2022/06/16 08:50:23;;;;;;;1.40;0.60;;;18.80;99.90;;;;;;6252519;22;20012;-93
2022/06/16 08:53:25;;;;;;;1.58;0.75;;;18.90;99.90;;;;;;6272956;22;20015;-94
2022/06/16 09:04:20;;;;;;;2.42;1.00;;;19.00;99.90;;;;;;6194186;23;20053;-93
2022/06/16 09:51:41;;;;;;;1.63;0.90;;;19.10;99.90;;;;;;6096795;23;20019;-95
2022/06/16 12:19:51;;;;;;;3.05;1.30;;;22.80;79.30;;;;;;6327658;22;20058;-91
2022/06/16 12:22:50;;;;;;;2.65;1.02;;;22.80;78.50;;;;;;6298490;22;20019;-92
2022/06/16 12:27:54;;;;;;;2.30;1.30;;;22.80;79.40;;;;;;6219805;22;20020;-91
2022/06/16 12:30:32;;;;;;;2.22;0.85;;;22.80;79.10;;;;;;6208361;23;20021;-94
2022/06/16 13:04:57;;;;;;;3.05;1.00;;;23.40;78.20;;;;;;6235621;22;20047;-92
2022/06/16 13:13:01;;;;;;;2.78;1.00;;;23.40;76.20;;;;;;6237201;22;20024;-91
2022/06/16 13:15:38;;;;;;;2.47;1.10;;;23.40;76.90;;;;;;6259995;22;20008;-90
2022/06/16 13:23:30;;;;;;;2.28;1.05;;;23.40;76.90;;;;;;6228835;22;20364;-89
2022/06/16 13:26:24;;;;;;;2.83;0.80;;;23.50;75.30;;;;;;6227502;23;20029;-91
2022/06/16 13:29:05;;;;;;;2.60;1.02;;;23.40;76.40;;;;;;6199575;23;20016;-91
2022/06/16 13:31:42;;;;;;;1.98;0.90;;;23.40;76.40;;;;;;6221033;23;20021;-92
2022/06/16 13:34:08;;;;;;;1.40;0.80;;;23.40;77.10;;;;;;6220407;23;20024;-93
2022/06/16 13:36:34;;;;;;;2.30;0.90;;;23.40;77.10;;;;;;6196775;23;20100;-91
2022/06/16 13:39:01;;;;;;;;;;;23.40;76.60;;;;;;6230602;23;20016;-89
2022/06/16 13:41:35;;;;;;;3.70;0.90;;;23.40;74.90;;;;;;6201669;23;19916;-90
2022/06/16 13:44:19;;;;;;;2.03;0.90;;;23.40;76.40;;;;;;6221340;23;20008;-91
2022/06/16 13:47:03;;;;;;;2.67;0.90;;;23.30;75.40;;;;;;6205702;23;20021;-90
2022/06/16 13:49:35;;;;;;;3.83;0.95;;;23.30;75.50;;;;;;6231098;23;20052;-89
2022/06/16 13:52:08;;;;;;;1.40;0.80;;;23.30;76.30;;;;;;6197338;23;20103;-92
2022/06/16 13:54:37;;;;;;;1.40;0.75;;;23.30;76.00;;;;;;6225592;23;20056;-91
2022/06/16 13:57:29;;;;;;;2.55;1.00;;;23.20;75.80;;;;;;6196713;23;20012;-91
2022/06/16 14:26:22;;;;;;;1.42;0.80;;;23.40;74.80;;;;;;6258587;22;20463;-91
2022/06/16 14:28:50;;;;;;;3.65;0.93;;;23.30;74.40;;;;;;6219523;23;20020;-90
2022/06/16 14:31:21;;;;;;;2.50;0.85;;;23.30;75.00;;;;;;6218379;23;20020;-91
2022/06/16 14:33:57;;;;;;;3.30;1.05;;;23.30;74.90;;;;;;6218219;23;20019;-92
2022/06/16 14:36:41;;;;;;;4.55;1.05;;;23.30;75.00;;;;;;6245099;23;20012;-92
2022/06/16 14:39:37;;;;;;;1.95;0.95;;;23.30;75.40;;;;;;6219815;23;20020;-91
2022/06/16 14:42:17;;;;;;;2.88;1.05;;;23.30;74.70;;;;;;6219392;23;20067;-91
2022/06/16 14:45:01;;;;;;;2.38;0.82;;;23.30;74.80;;;;;;6219891;23;20019;-94
2022/06/16 14:47:41;;;;;;;2.15;1.00;;;23.20;73.70;;;;;;6219962;23;20066;-91
2022/06/16 14:50:22;;;;;;;1.77;0.65;;;23.20;74.70;;;;;;6244799;23;20433;-90
2022/06/16 14:53:34;;;;;;;1.83;0.93;;;23.20;73.30;;;;;;6243105;23;20070;-92
2022/06/16 14:56:13;;;;;;;2.47;0.95;;;23.10;73.60;;;;;;6126325;23;20108;-93
2022/06/16 14:58:48;;;;;;;2.03;0.80;;;23.00;74.20;;;;;;6125961;23;20403;-90
2022/06/16 15:01:44;;;;;;;2.17;0.88;;;23.00;74.60;;;;;;6101948;23;20075;-90
2022/06/16 15:06:49;;;;;;;1.58;0.90;;;22.90;75.50;;;;;;6260903;22;20024;-92
2022/06/16 15:09:22;;;;;;;1.88;0.75;;;22.80;75.80;;;;;;6249577;22;20026;-90
2022/06/16 15:11:50;;;;;;;2.22;0.80;;;22.90;75.10;;;;;;6249434;22;20043;-90
2022/06/16 15:14:18;;;;;;;1.60;0.80;;;22.80;75.30;;;;;;6249424;22;20027;-90
2022/06/16 15:19:38;;;;;;;2.25;0.98;;;22.70;75.80;;;;;;6249298;22;20073;-92
2022/06/16 15:22:05;;;;;;;3.17;1.00;;;22.70;75.80;;;;;;6224429;22;20051;-88
2022/06/16 15:24:40;;;;;;;2.92;1.00;;;22.70;75.40;;;;;;6249294;22;20011;-89
2022/06/16 15:27:07;;;;;;;2.80;1.13;;;22.60;75.70;;;;;;6249315;22;20019;-89
2022/06/16 15:29:42;;;;;;;2.83;0.95;;;22.50;75.90;;;;;;6249303;22;20570;-88
2022/06/16 15:37:41;;;;;;;2.28;0.77;;;22.30;77.10;;;;;;6249251;22;20016;-89
2022/06/16 15:40:07;;;;;;;2.50;1.10;;;22.30;77.70;;;;;;6224228;22;20149;-86
2022/06/16 15:42:33;;;;;;;2.58;1.00;;;22.30;77.80;;;;;;6247687;22;20046;-90
2022/06/16 15:45:07;;;;;;;2.72;1.10;;;22.30;77.30;;;;;;6249226;22;20020;-92
2022/06/16 15:47:37;;;;;;;1.98;0.85;;;22.30;77.60;;;;;;6224301;22;20027;-92
2022/06/16 15:55:44;;;;;;;2.92;0.80;;;22.20;78.50;;;;;;6234475;22;20027;-90
2022/06/16 15:58:21;;;;;;;2.22;0.88;;;22.20;78.60;;;;;;6196141;23;20024;-90
2022/06/16 16:00:53;;;;;;;2.75;1.00;;;22.10;78.20;;;;;;6219793;23;20095;-90
2022/06/16 16:05:55;;;;;;;2.60;1.00;;;22.00;79.00;;;;;;6279102;22;20024;-90
2022/06/16 16:08:33;;;;;;;2.67;0.90;;;22.00;79.70;;;;;;6251528;22;20043;-91
2022/06/16 16:11:05;;;;;;;3.42;1.05;;;22.00;79.70;;;;;;6202557;22;20016;-91
2022/06/16 16:13:54;;;;;;;1.85;0.98;;;22.10;80.30;;;;;;6224950;22;20115;-93
2022/06/16 16:16:20;;;;;;;2.05;0.98;;;22.10;80.30;;;;;;6224478;22;20016;-92
2022/06/16 16:19:06;;;;;;;2.10;1.10;;;22.00;80.30;;;;;;6250165;22;20054;-88
2022/06/16 16:21:53;;;;;;;2.63;1.00;;;22.00;80.20;;;;;;6249241;22;20047;-88
2022/06/16 16:24:19;;;;;;;;;;;22.00;80.60;;;;;;6251524;22;20401;-89
2022/06/16 16:26:53;;;;;;;2.15;0.88;;;22.00;80.80;;;;;;6226047;22;19915;-88
2022/06/16 16:29:21;;;;;;;2.45;1.00;;;21.90;80.20;;;;;;6251304;22;20023;-89
2022/06/16 16:31:54;;;;;;;3.08;0.95;;;21.90;80.50;;;;;;6251203;22;20019;-89
2022/06/16 16:34:31;;;;;;;2.42;0.80;;;21.80;80.60;;;;;;6251117;22;20030;-90
2022/06/16 16:37:03;;;;;;;1.67;0.90;;;21.70;81.10;;;;;;6252070;22;20444;-89
2022/06/16 16:39:35;;;;;;;2.30;0.82;;;21.70;81.10;;;;;;6224074;22;20019;-90
2022/06/16 16:45:07;;;;;;;1.98;0.93;;;21.60;82.00;;;;;;6243925;22;20038;-89
2022/06/16 16:47:53;;;;;;;2.20;1.20;;;21.50;82.30;;;;;;6250384;22;20016;-89
2022/06/16 16:50:19;;;;;;;2.30;0.80;;;21.40;82.10;;;;;;6224860;22;20020;-88
2022/06/16 16:52:45;;;;;;;2.30;1.05;;;21.40;82.50;;;;;;6225407;22;20098;-89
2022/06/16 16:55:22;;;;;;;4.25;1.30;;;21.30;83.20;;;;;;6250790;22;20050;-88
2022/06/16 16:57:48;;;;;;;3.88;1.38;;;21.30;84.00;;;;;;6251018;22;20020;-88
2022/06/16 17:00:21;;;;;;;2.72;1.08;;;21.30;84.80;;;;;;6225545;22;20031;-88
2022/06/16 17:02:47;;;;;;;4.20;1.35;;;21.20;85.60;;;;;;6250977;22;20073;-88
2022/06/16 17:05:14;;;;;;;2.80;1.20;;;21.20;86.60;;;;;;6225202;22;20016;-88
2022/06/16 17:07:40;;;;;;;2.25;1.20;;;21.10;87.40;;;;;;6250601;22;20514;-89
2022/06/16 17:10:13;;;;;;;3.20;1.40;;;21.10;88.30;;;;;;6250749;22;20019;-89
2022/06/16 17:12:49;;;;;;;4.32;1.88;;;21.00;89.50;;;;;;6250887;22;20441;-92
2022/06/16 17:15:18;;;;;;;2.67;1.63;;;21.00;90.00;;;;;;6250755;22;20016;-88
2022/06/16 17:17:45;;;;;;;4.00;1.90;;;21.00;90.50;;;;;;6225363;22;20330;-87
2022/06/16 17:20:12;;;;;;;3.38;1.60;;;21.00;90.60;;;;;;6250618;22;20015;-88
2022/06/16 17:22:37;;;;;;;3.47;1.45;;;20.90;90.90;;;;;;6250727;22;20069;-91
2022/06/16 17:25:08;;;;;;;3.33;1.50;;;20.90;91.10;;;;;;6225423;22;20012;-88
2022/06/16 17:27:35;;;;;;;3.08;1.50;;;20.90;91.30;;;;;;6277805;22;20018;-88
2022/06/16 17:30:01;;;;;;;4.55;2.10;;;20.80;91.40;;;;;;6250444;22;20430;-89
2022/06/16 17:32:27;;;;;;;2.97;1.45;;;20.80;91.40;;;;;;6225743;22;20019;-91
2022/06/16 17:34:56;;;;;;;4.50;1.90;;;20.70;91.40;;;;;;6252064;22;20027;-87
2022/06/16 17:37:28;;;;;;;3.55;1.70;;;20.70;91.60;;;;;;6253917;22;20011;-88
2022/06/16 17:39:56;;;;;;;3.22;1.45;;;20.60;91.90;;;;;;6254152;22;20015;-89
2022/06/16 17:42:23;;;;;;;3.25;1.52;;;20.60;92.40;;;;;;6228089;22;20094;-89
2022/06/16 17:44:51;;;;;;;3.58;1.50;;;20.60;92.90;;;;;;6249421;22;20026;-90
2022/06/16 17:47:17;;;;;;;4.35;1.70;;;20.60;92.90;;;;;;6249658;22;20042;-89
2022/06/16 17:49:43;;;;;;;;;;;20.60;93.50;;;;;;6225592;22;20026;-89
2022/06/16 18:00:18;;;;;;;2.92;1.23;;;20.80;93.80;;;;;;6250846;22;20479;-89
2022/06/16 18:02:44;;;;;;;2.10;1.15;;;20.80;93.20;;;;;;6250589;22;20016;-90
2022/06/16 18:05:10;;;;;;;3.15;1.33;;;20.70;92.90;;;;;;6250238;22;20011;-88
2022/06/16 18:07:37;;;;;;;1.85;1.00;;;20.70;93.00;;;;;;6252820;22;20079;-91
2022/06/16 18:10:11;;;;;;;2.53;1.00;;;20.60;93.10;;;;;;6252004;22;20092;-88
2022/06/16 18:12:37;;;;;;;4.70;1.80;;;20.70;93.10;;;;;;6226071;22;20024;-88
2022/06/16 18:15:18;;;;;;;3.63;1.23;;;20.60;93.40;;;;;;6249971;22;20023;-90
2022/06/16 18:17:50;;;;;;;3.17;1.30;;;20.60;93.80;;;;;;6250304;22;20103;-89
2022/06/16 18:20:20;;;;;;;3.15;1.20;;;20.60;93.90;;;;;;6249863;22;20012;-91
2022/06/16 18:22:48;;;;;;;2.90;1.30;;;20.60;93.80;;;;;;6224979;22;20058;-90
2022/06/16 18:25:18;;;;;;;3.72;1.10;;;20.50;93.60;;;;;;6250145;22;20347;-91
2022/06/16 18:27:49;;;;;;;2.83;1.30;;;20.50;93.70;;;;;;6249628;22;20073;-95
2022/06/16 18:30:40;;;;;;;;;;;;;;;;;;;;;
2022/06/16 18:33:35;;;;;;;4.50;1.63;;;20.50;93.60;;;;;;6250039;22;20023;-94
2022/06/16 18:36:01;;;;;;;2.97;1.40;;;20.40;93.40;;;;;;6224499;22;20441;-92
2022/06/16 18:38:27;;;;;;;4.05;1.20;;;20.30;93.40;;;;;;6224988;22;20023;-92
2022/06/16 18:40:52;;;;;;;3.50;1.50;;;20.30;93.50;;;;;;6224871;22;20034;-94
2022/06/16 18:43:25;;;;;;;3.55;1.95;;;20.20;93.60;;;;;;6225049;22;20095;-91
2022/06/16 18:45:52;;;;;;;3.55;1.55;;;20.20;93.70;;;;;;6249944;22;20467;-95
2022/06/16 18:48:21;;;;;;;3.85;1.40;;;20.10;93.80;;;;;;6224739;22;20016;-93
2022/06/16 18:50:47;;;;;;;3.50;1.17;;;20.00;94.10;;;;;;6224910;22;20016;-93
2022/06/16 19:15:18;;;;;;;3.75;1.40;;;19.50;96.00;;;;;;6275036;22;20019;-91
2022/06/16 19:17:54;;;;;;;3.10;1.20;;;19.30;95.90;;;;;;6224640;22;20023;-92
2022/06/16 19:20:33;;;;;;;4.22;1.77;;;19.30;96.40;;;;;;6249775;22;20027;-90
2022/06/16 19:23:08;;;;;;;3.55;1.40;;;19.20;96.40;;;;;;6224467;22;20019;-92
2022/06/16 19:25:34;;;;;;;2.95;1.50;;;19.20;96.80;;;;;;6224443;22;20023;-92
2022/06/16 19:28:02;;;;;;;3.08;1.40;;;19.20;96.90;;;;;;6249878;22;20020;-91
2022/06/16 19:30:44;;;;;;;3.53;1.45;;;19.20;97.40;;;;;;6225279;22;20323;-91
2022/06/16 19:33:18;;;;;;;5.78;1.60;;;19.10;97.50;;;;;;6249819;22;20024;-91
2022/06/16 19:35:46;;;;;;;4.32;2.17;;;19.10;98.00;;;;;;6223449;22;20030;-91
2022/06/16 19:38:17;;;;;;;4.35;1.80;;;19.10;98.20;;;;;;6222426;22;20015;-91
2022/06/16 19:40:43;;;;;;;3.75;1.90;;;19.00;98.50;;;;;;6223745;22;20019;-91
2022/06/16 19:43:13;;;;;;;4.45;1.73;;;19.00;99.00;;;;;;6223932;22;20459;-92
2022/06/16 19:51:12;;;;;;;4.18;1.80;;;19.00;99.90;;;;;;6249548;22;20077;-91
2022/06/16 19:53:44;;;;;;;4.00;1.80;;;18.90;99.90;;;;;;6224663;22;20051;-92
2022/06/16 19:56:10;;;;;;;4.88;1.98;;;18.80;99.90;;;;;;6225042;22;20016;-92
2022/06/16 19:58:36;;;;;;;2.65;1.38;;;18.80;99.90;;;;;;6253066;22;20097;-91
2022/06/16 20:01:02;;;;;;;4.45;1.60;;;18.70;99.90;;;;;;6227734;22;20020;-92
2022/06/16 20:03:30;;;;;;;4.00;1.80;;;18.60;99.90;;;;;;6227702;22;20023;-88
2022/06/16 20:06:00;;;;;;;4.25;2.08;;;18.40;99.90;;;;;;6253044;22;20023;-90
2022/06/16 20:08:27;;;;;;;4.15;2.20;;;18.30;99.90;;;;;;6253106;22;20016;-94
2022/06/16 20:10:53;;;;;;;5.10;2.30;;;18.20;99.90;;;;;;6253355;22;20095;-95
2022/06/16 20:13:21;;;;;;;;;;;18.00;99.90;;;;;;6228231;22;20015;-93
2022/06/16 20:15:47;;;;;;;;;;;17.90;99.90;;;;;;6252963;22;19965;-89
2022/06/16 20:18:15;;;;;;;5.28;3.10;;;17.90;99.90;;;;;;6253202;22;20328;-89
2022/06/16 20:20:43;;;;;;;6.38;3.10;;;17.80;99.90;;;;;;6254258;22;20016;-90
2022/06/16 20:23:15;;;;;;;6.40;3.13;;;17.80;99.90;;;;;;6253110;22;20085;-93
2022/06/16 20:25:45;;;;;;;5.88;3.17;;;17.80;99.90;;;;;;6253032;22;20019;-90
2022/06/16 20:28:11;;;;;;;6.88;2.47;;;17.70;99.90;;;;;;6227940;22;20326;-89
2022/06/16 20:30:37;;;;;;;5.38;2.67;;;17.70;99.90;;;;;;6253138;22;20020;-88
2022/06/16 20:33:05;;;;;;;5.63;3.30;;;17.70;99.90;;;;;;6252818;22;20098;-88
2022/06/16 20:35:31;;;;;;;7.30;4.70;;;17.60;99.90;;;;;;6227923;22;20349;-88
2022/06/16 20:37:57;;;;;;;6.10;3.42;;;17.60;99.90;;;;;;6253371;22;20015;-90
2022/06/16 20:40:23;;;;;;;7.05;3.28;;;17.50;99.90;;;;;;6225794;22;20015;-92
2022/06/16 20:42:59;;;;;;;6.03;3.30;;;17.40;99.90;;;;;;6226494;22;20012;-90
2022/06/16 20:45:29;;;;;;;7.13;3.70;;;17.40;99.90;;;;;;6252775;22;20022;-91
2022/06/16 20:47:57;;;;;;;7.38;4.10;;;17.40;99.90;;;;;;6252872;22;20052;-89
2022/06/16 20:50:27;;;;;;;7.55;3.75;;;17.30;99.90;;;;;;6227751;22;20061;-90
2022/06/16 20:52:52;;;;;;;6.43;3.80;;;17.30;99.90;;;;;;6253370;22;20468;-90
2022/06/16 20:55:30;;;;;;;5.75;3.15;;;17.30;99.90;;;;;;6228035;22;20024;-92
2022/06/16 21:03:26;;;;;;;5.78;3.53;;;17.30;99.90;;;;;;6283050;22;20062;-90
2022/06/16 21:05:53;;;;;;;6.55;3.40;;;17.30;99.90;;;;;;6227998;22;20438;-91
2022/06/16 21:08:23;;;;;;;5.43;3.38;;;17.20;99.90;;;;;;6226349;22;20027;-92
2022/06/16 21:10:49;;;;;;;5.53;3.15;;;17.20;99.90;;;;;;6251156;22;20027;-92
2022/06/16 21:13:15;;;;;;;;;;;17.10;99.90;;;;;;6251542;22;20051;-93
2022/06/16 21:15:44;;;;;;;7.47;4.35;;;17.10;99.90;;;;;;6225646;22;19919;-93
2022/06/16 21:18:25;;;;;;;5.63;3.50;;;17.00;99.90;;;;;;6225622;22;20012;-91
2022/06/16 21:20:51;;;;;;;6.65;3.35;;;17.00;99.90;;;;;;6226040;22;20011;-90
2022/06/16 21:23:22;;;;;;;;;;;16.90;99.90;;;;;;6251566;22;20016;-89
2022/06/16 21:25:49;;;;;;;6.47;3.72;;;16.80;99.90;;;;;;6251143;22;20332;-89
2022/06/16 21:28:15;;;;;;;6.32;3.60;;;16.70;99.90;;;;;;6250909;22;20144;-92
2022/06/16 21:30:41;;;;;;;7.15;4.07;;;16.70;99.90;;;;;;6277976;22;20093;-93
2022/06/16 21:33:08;;;;;;;6.57;3.58;;;16.70;99.90;;;;;;6225489;22;20015;-89
2022/06/16 21:35:35;;;;;;;7.45;3.67;;;16.60;99.90;;;;;;6250831;22;20020;-91
2022/06/16 21:38:01;;;;;;;6.50;3.80;;;16.50;99.90;;;;;;6277841;22;20039;-91
2022/06/16 21:40:33;;;;;;;8.38;3.90;;;16.50;99.90;;;;;;6225367;22;20020;-89
2022/06/16 21:43:00;;;;;;;6.78;3.95;;;16.40;99.90;;;;;;6278064;22;20353;-91
2022/06/16 21:45:29;;;;;;;6.13;3.67;;;16.30;99.90;;;;;;6250818;22;20016;-90
2022/06/16 21:48:00;;;;;;;6.68;3.80;;;16.20;99.90;;;;;;6225712;22;20015;-91
2022/06/16 21:50:27;;;;;;;6.68;4.15;;;16.20;99.90;;;;;;6225739;22;20019;-91
2022/06/16 21:52:55;;;;;;;6.75;4.00;;;16.00;99.90;;;;;;6277738;22;20081;-91
2022/06/16 21:55:24;;;;;;;7.70;5.22;;;16.00;99.90;;;;;;6250488;22;20463;-90
2022/06/16 21:57:50;;;;;;;6.97;3.40;;;15.90;99.90;;;;;;6250400;22;20019;-91
2022/06/16 22:00:19;;;;;;;5.68;3.30;;;15.80;99.90;;;;;;6225505;22;20103;-92
2022/06/16 22:02:46;;;;;;;5.75;3.22;;;15.70;99.90;;;;;;6250542;22;20015;-90
2022/06/16 22:05:19;;;;;;;6.25;3.22;;;15.60;99.90;;;;;;6250466;22;20016;-89
2022/06/16 22:07:47;;;;;;;5.82;3.30;;;15.60;99.90;;;;;;6225205;22;20449;-91
2022/06/16 22:10:17;;;;;;;7.90;3.33;;;15.50;99.90;;;;;;6250474;22;20434;-91
2022/06/16 22:12:43;;;;;;;7.05;3.75;;;15.50;99.90;;;;;;6250401;22;20022;-90
2022/06/16 22:17:57;;;;;;;8.27;4.60;;;15.50;99.90;;;;;;6250186;22;20019;-91
2022/06/16 22:20:27;;;;;;;7.60;4.10;;;15.40;99.90;;;;;;6249645;22;20019;-92
2022/06/16 22:22:54;;;;;;;7.30;3.65;;;15.40;99.90;;;;;;6277482;22;20137;-92
2022/06/16 22:25:22;;;;;;;6.93;4.22;;;15.40;99.90;;;;;;6250358;22;20369;-92
2022/06/16 22:27:54;;;;;;;8.15;4.10;;;15.30;99.90;;;;;;6250178;22;20322;-89
2022/06/16 22:30:21;;;;;;;6.78;4.10;;;15.30;99.90;;;;;;6250153;22;20340;-90
2022/06/16 22:32:47;;;;;;;7.47;4.57;;;15.20;99.90;;;;;;6225017;22;20051;-92
2022/06/16 22:35:23;;;;;;;6.07;3.90;;;15.30;99.90;;;;;;6250290;22;20065;-92
2022/06/16 22:37:54;;;;;;;6.25;3.90;;;15.30;99.90;;;;;;6250162;22;20090;-91
2022/06/16 22:40:27;;;;;;;7.05;3.90;;;15.20;99.90;;;;;;6225053;22;20031;-91
2022/06/16 22:43:10;;;;;;;7.20;4.10;;;15.30;99.90;;;;;;6250214;22;20016;-90
2022/06/16 22:45:37;;;;;;;8.25;4.28;;;15.30;99.90;;;;;;6250335;22;20051;-91
2022/06/16 22:48:05;;;;;;;10.02;4.90;;;15.30;99.90;;;;;;6250152;22;20327;-92
2022/06/16 22:50:32;;;;;;;7.28;4.85;;;15.30;99.90;;;;;;6224801;22;20099;-91
2022/06/16 22:52:58;;;;;;;9.13;5.68;;;15.40;99.90;;;;;;6249643;22;20022;-89
2022/06/16 22:58:10;;;;;;;7.55;4.68;;;15.40;99.90;;;;;;6249577;22;20016;-91
2022/06/16 23:25:22;;;;;;;8.52;4.97;;;15.30;99.90;;;;;;6314589;22;20020;-91
2022/06/16 23:28:36;;;;;;;9.07;5.50;;;15.20;99.90;;;;;;6261515;22;20106;-96
2022/06/16 23:31:02;;;;;;;8.07;4.85;;;15.20;99.90;;;;;;6254564;22;20026;-93
2022/06/16 23:38:38;;;;;;;10.13;5.05;;;14.90;99.90;;;;;;6243887;22;20240;-94
2022/06/16 23:41:28;;;;;;;8.60;5.07;;;14.90;99.90;;;;;;6220172;23;20074;-94
2022/06/16 23:48:26;;;;;;;7.88;4.82;;;14.90;99.90;;;;;;6247447;23;20027;-95
2022/06/16 23:51:00;;;;;;;8.07;5.00;;;14.80;99.90;;;;;;6139588;23;20023;-96
2022/06/16 23:53:37;;;;;;;7.63;4.63;;;14.70;99.90;;;;;;6220462;23;20020;-95
2022/06/16 23:56:26;;;;;;;7.53;4.40;;;14.70;99.90;;;;;;6189029;23;20028;-92
2022/06/16 23:59:03;;;;;;;8.52;5.15;;;14.70;99.90;;;;;;6189370;23;20091;-93
